Time;durP1;ratioP1;P1;durP2;ratioP2;P2;SDS_P1;SDS_P2;PMS_P1;PMS_P2;Temp;Humidity;BMP_temperature;BMP_pressure;BME280_temperature;BME280_humidity;BME280_pressure;Samples;Min_cycle;Max_cycle;Signal;HPM_P1;HPM_P2
2023/09/05 00:01:13;;;;;;;16.57;14.80;;;;;;;16.58;100.00;102013.69;4933871;29;20429;-67
2023/09/05 00:03:44;;;;;;;17.73;14.40;;;;;;;16.58;100.00;102017.28;4934776;29;20424;-68
2023/09/05 00:06:13;;;;;;;16.40;14.70;;;;;;;16.56;100.00;102016.63;4937813;29;20598;-66
2023/09/05 00:08:42;;;;;;;18.37;13.63;;;;;;;16.72;100.00;102013.47;4936456;28;20435;-66
2023/09/05 00:11:12;;;;;;;15.83;13.40;;;;;;;16.66;100.00;102014.31;4938148;29;20529;-67
2023/09/05 00:13:41;;;;;;;17.53;13.27;;;;;;;16.73;100.00;102012.41;4947890;28;20428;-68
2023/09/05 00:16:10;;;;;;;14.33;11.90;;;;;;;16.81;100.00;102008.59;4933681;29;20411;-68
2023/09/05 00:18:39;;;;;;;15.33;11.77;;;;;;;16.81;100.00;102001.22;4943896;28;20477;-68
2023/09/05 00:21:10;;;;;;;14.83;12.00;;;;;;;17.01;100.00;102000.31;4940648;29;20457;-68
2023/09/05 00:23:41;;;;;;;12.83;10.30;;;;;;;17.08;100.00;102003.84;4953797;28;20939;-68
2023/09/05 00:26:10;;;;;;;12.20;9.13;;;;;;;17.11;99.32;102006.16;4941604;29;20446;-68
2023/09/05 00:28:39;;;;;;;10.30;8.87;;;;;;;17.26;99.18;102006.69;4942029;29;20542;-66
2023/09/05 00:31:10;;;;;;;8.43;7.63;;;;;;;17.20;98.28;102005.66;4936885;29;20423;-68
2023/09/05 00:33:39;;;;;;;10.90;7.53;;;;;;;17.24;97.91;102000.59;4936483;29;20404;-67
2023/09/05 00:36:12;;;;;;;8.40;7.60;;;;;;;17.19;98.49;102005.88;4928469;29;20423;-68
2023/09/05 00:38:42;;;;;;;8.40;7.33;;;;;;;17.25;98.36;101999.53;4935948;29;20546;-68
2023/09/05 00:41:11;;;;;;;7.73;7.03;;;;;;;17.26;98.06;101998.50;4928850;29;20463;-66
2023/09/05 00:43:40;;;;;;;7.97;7.27;;;;;;;17.26;97.65;101993.00;4950660;28;20834;-67
2023/09/05 00:46:10;;;;;;;9.33;8.43;;;;;;;17.30;97.94;101997.81;4952257;28;20446;-67
2023/09/05 00:48:42;;;;;;;10.83;9.47;;;;;;;17.26;97.75;101993.84;4945954;29;20430;-66
2023/09/05 00:51:13;;;;;;;12.43;9.17;;;;;;;17.41;97.16;101996.28;4936952;29;20421;-68
2023/09/05 00:53:42;;;;;;;10.93;9.60;;;;;;;17.47;96.14;101989.09;4934882;29;20465;-67
2023/09/05 00:56:12;;;;;;;10.80;9.70;;;;;;;17.51;96.53;101988.44;4938854;28;20437;-68
2023/09/05 00:58:42;;;;;;;10.17;9.17;;;;;;;17.59;95.66;101984.59;4942631;29;20403;-67
2023/09/05 01:01:11;;;;;;;8.83;7.70;;;;;;;17.69;94.88;101987.69;4935792;29;20456;-66
2023/09/05 01:03:40;;;;;;;8.23;7.43;;;;;;;17.62;94.87;101982.25;4934438;29;20450;-67
2023/09/05 01:06:15;;;;;;;9.43;8.63;;;;;;;17.62;95.07;101985.00;4950641;28;20551;-67
2023/09/05 01:08:48;;;;;;;9.17;8.00;;;;;;;17.71;94.67;101980.09;4951729;28;20422;-68
2023/09/05 01:11:19;;;;;;;9.10;7.90;;;;;;;17.66;94.21;101977.19;4932749;29;20438;-67
2023/09/05 01:13:50;;;;;;;7.60;6.97;;;;;;;17.66;94.10;101977.19;4934491;29;20419;-66
2023/09/05 01:16:20;;;;;;;7.67;6.97;;;;;;;17.67;94.24;101967.94;4932051;29;20444;-67
2023/09/05 01:18:49;;;;;;;9.13;7.60;;;;;;;17.80;93.44;101965.06;4938755;29;20437;-67
2023/09/05 01:21:27;;;;;;;8.57;7.77;;;;;;;17.77;93.54;101966.34;4949826;28;20893;-68
2023/09/05 01:24:10;;;;;;;10.23;7.50;;;;;;;17.62;94.56;101965.81;4927858;29;20449;-67
2023/09/05 01:26:41;;;;;;;7.30;6.70;;;;;;;17.66;93.71;101964.34;4950655;28;20847;-67
2023/09/05 01:29:15;;;;;;;7.70;6.93;;;;;;;17.62;94.11;101965.81;4933286;29;20782;-68
2023/09/05 01:31:45;;;;;;;9.00;7.00;;;;;;;17.62;94.42;101965.81;4931892;29;20454;-67
2023/09/05 01:34:14;;;;;;;9.83;7.83;;;;;;;17.73;93.43;101967.84;4933987;29;20426;-68
2023/09/05 01:36:43;;;;;;;7.77;7.07;;;;;;;17.61;93.60;101964.19;4934509;29;20466;-68
2023/09/05 01:39:31;;;;;;;8.60;7.10;;;;;;;17.52;94.68;101962.75;4940681;28;20427;-67
2023/09/05 01:42:00;;;;;;;8.07;7.37;;;;;;;17.59;94.39;101965.44;4953642;28;20467;-67
2023/09/05 01:44:31;;;;;;;7.97;6.43;;;;;;;17.61;93.40;101957.88;4940791;29;20876;-68
2023/09/05 01:47:00;;;;;;;7.80;6.93;;;;;;;17.64;93.14;101958.25;4935234;29;20439;-68
2023/09/05 01:49:30;;;;;;;7.23;6.30;;;;;;;17.65;93.29;101959.94;4957939;28;20857;-69
2023/09/05 01:51:59;;;;;;;7.50;6.33;;;;;;;17.53;93.58;101953.44;4934374;29;20460;-66
2023/09/05 01:54:30;;;;;;;9.30;6.77;;;;;;;17.59;93.21;101955.34;4952442;28;20444;-67
2023/09/05 01:56:59;;;;;;;7.10;6.50;;;;;;;17.66;93.50;101949.81;4933922;29;20407;-67
2023/09/05 01:59:28;;;;;;;8.27;7.33;;;;;;;17.61;93.06;101953.22;4933382;29;20447;-67
2023/09/05 02:01:57;;;;;;;6.60;5.97;;;;;;;17.57;94.67;101956.59;4934758;29;20542;-67
2023/09/05 02:04:26;;;;;;;7.73;6.97;;;;;;;17.58;93.65;101947.31;4942018;28;20453;-68
2023/09/05 02:06:55;;;;;;;7.90;7.10;;;;;;;17.50;94.18;101950.34;4936879;29;20463;-69
2023/09/05 02:09:25;;;;;;;7.20;6.50;;;;;;;17.53;94.83;101944.41;4937256;29;20518;-67
2023/09/05 02:11:56;;;;;;;7.30;6.03;;;;;;;17.68;94.73;101934.00;4930780;29;20471;-67
2023/09/05 02:14:25;;;;;;;13.47;7.13;;;;;;;17.59;93.32;101944.38;4933135;29;20478;-67
2023/09/05 02:16:54;;;;;;;8.07;6.53;;;;;;;17.41;93.78;101938.81;4950992;28;20444;-67
2023/09/05 02:19:26;;;;;;;6.87;6.37;;;;;;;17.30;94.94;101939.53;4937541;29;20456;-67
2023/09/05 02:21:56;;;;;;;10.23;6.20;;;;;;;17.36;95.42;101935.91;4945895;28;20438;-70
2023/09/05 02:24:28;;;;;;;7.90;6.40;;;;;;;17.28;95.00;101925.25;4925779;29;20468;-68
2023/09/05 02:26:58;;;;;;;9.07;6.17;;;;;;;17.25;95.26;101920.22;4924430;29;20965;-68
2023/09/05 02:29:29;;;;;;;7.37;6.67;;;;;;;17.38;95.23;101912.72;4935708;29;20456;-67
2023/09/05 02:31:58;;;;;;;8.93;6.70;;;;;;;17.33;94.51;101914.47;4939912;28;20498;-68
2023/09/05 02:34:27;;;;;;;7.50;6.80;;;;;;;17.30;94.41;101918.47;4933774;29;20418;-68
2023/09/05 02:36:59;;;;;;;6.17;5.57;;;;;;;17.39;95.17;101911.69;4928492;29;20532;-68
2023/09/05 02:39:29;;;;;;;9.47;6.17;;;;;;;17.39;93.86;101919.03;4931475;29;20433;-67
2023/09/05 02:42:03;;;;;;;6.20;5.10;;;;;;;17.46;94.20;101925.31;4945062;28;20490;-66
2023/09/05 02:44:32;;;;;;;6.00;5.50;;;;;;;17.43;94.28;101914.78;4933681;29;20410;-67
2023/09/05 02:47:01;;;;;;;9.40;6.00;;;;;;;17.43;93.53;101923.00;4930004;29;20459;-68
2023/09/05 02:49:31;;;;;;;6.87;5.93;;;;;;;17.33;94.49;101914.47;4946116;29;20426;-68
2023/09/05 02:52:00;;;;;;;6.23;5.73;;;;;;;17.42;94.84;101921.34;4927607;29;20855;-67
2023/09/05 02:54:30;;;;;;;7.40;5.80;;;;;;;17.38;93.32;101917.34;4933817;29;20729;-67
2023/09/05 02:56:59;;;;;;;5.53;5.00;;;;;;;17.35;93.48;101920.56;4950031;28;20431;-68
2023/09/05 02:59:29;;;;;;;6.80;5.13;;;;;;;17.30;93.86;101923.13;4938561;29;20493;-67
2023/09/05 03:01:58;;;;;;;6.17;5.63;;;;;;;17.21;93.83;101924.44;4932488;29;20468;-65
2023/09/05 03:04:32;;;;;;;6.20;5.60;;;;;;;17.15;94.45;101930.78;4933553;29;20425;-67
2023/09/05 03:07:02;;;;;;;5.93;5.30;;;;;;;17.24;94.25;101932.19;4946403;28;20476;-67
2023/09/05 03:09:31;;;;;;;5.57;5.07;;;;;;;17.16;95.40;101932.47;4935639;29;20441;-67
2023/09/05 03:12:00;;;;;;;6.43;5.83;;;;;;;17.23;95.29;101928.63;4936449;29;20458;-67
2023/09/05 03:14:35;;;;;;;6.30;5.70;;;;;;;17.14;94.80;101929.09;4932515;29;20427;-67
2023/09/05 03:17:04;;;;;;;6.60;5.90;;;;;;;17.03;94.90;101922.47;4943851;29;20428;-67
2023/09/05 03:19:34;;;;;;;5.60;5.13;;;;;;;16.93;95.21;101920.22;4932509;29;20492;-66
2023/09/05 03:22:04;;;;;;;6.27;5.30;;;;;;;16.91;95.62;101919.59;4946044;28;20479;-66
2023/09/05 03:24:33;;;;;;;6.47;5.57;;;;;;;16.91;95.57;101911.38;4939288;29;20487;-67
2023/09/05 03:27:03;;;;;;;7.27;6.67;;;;;;;16.93;96.08;101911.16;4950357;29;20435;-67
2023/09/05 03:29:32;;;;;;;7.10;5.97;;;;;;;16.87;96.29;101918.34;4927396;29;20403;-66
2023/09/05 03:32:03;;;;;;;8.93;5.83;;;;;;;16.82;96.42;101909.13;4936416;29;20847;-66
2023/09/05 03:34:32;;;;;;;7.00;5.73;;;;;;;16.82;96.27;101906.38;4929859;29;20456;-67
2023/09/05 03:37:01;;;;;;;5.80;5.30;;;;;;;16.72;96.60;101909.59;4941918;29;20445;-67
2023/09/05 03:39:31;;;;;;;5.70;5.30;;;;;;;16.82;97.76;101904.50;4934204;29;20535;-68
2023/09/05 03:42:00;;;;;;;5.90;5.27;;;;;;;16.99;96.65;101906.72;4936409;29;20468;-67
2023/09/05 03:44:29;;;;;;;7.10;6.50;;;;;;;16.80;96.48;101912.06;4939194;29;20423;-67
2023/09/05 03:46:58;;;;;;;6.87;5.60;;;;;;;16.72;97.19;101903.28;4937123;29;20625;-68
2023/09/05 03:49:29;;;;;;;6.20;5.70;;;;;;;16.65;96.99;101914.28;4944198;29;20645;-67
2023/09/05 03:51:58;;;;;;;6.70;6.17;;;;;;;16.58;97.72;101910.72;4936108;28;20449;-67
2023/09/05 03:54:27;;;;;;;8.10;6.77;;;;;;;16.62;98.16;101914.69;4935887;29;20423;-67
2023/09/05 03:56:56;;;;;;;9.63;6.10;;;;;;;16.73;98.98;101907.69;4940785;29;20830;-67
2023/09/05 03:59:25;;;;;;;6.27;5.67;;;;;;;16.90;97.43;101912.44;4935324;29;20470;-68
2023/09/05 04:01:54;;;;;;;7.57;6.17;;;;;;;16.81;96.35;101915.63;4942895;29;20435;-68
2023/09/05 04:04:24;;;;;;;5.53;5.03;;;;;;;16.95;96.11;101919.97;4950153;28;20972;-67
2023/09/05 04:06:55;;;;;;;6.60;6.07;;;;;;;17.09;96.52;101927.03;4935404;29;20427;-68
2023/09/05 04:09:24;;;;;;;5.43;4.93;;;;;;;17.01;94.62;101929.19;4946329;28;20469;-67
2023/09/05 04:11:54;;;;;;;7.27;5.93;;;;;;;16.98;96.46;101935.13;4938441;29;20776;-67
2023/09/05 04:14:25;;;;;;;6.40;5.73;;;;;;;17.23;96.26;101941.50;4934150;29;20431;-68
2023/09/05 04:16:55;;;;;;;6.57;5.80;;;;;;;17.03;94.75;101938.03;4937646;29;20436;-68
2023/09/05 04:19:24;;;;;;;6.13;5.63;;;;;;;16.93;95.45;101943.97;4937283;29;20404;-68
2023/09/05 04:21:54;;;;;;;6.57;5.97;;;;;;;16.97;96.32;101944.38;4955304;28;20446;-67
2023/09/05 04:24:23;;;;;;;6.63;6.03;;;;;;;16.90;95.52;101945.25;4929392;29;20427;-67
2023/09/05 04:26:54;;;;;;;7.77;6.97;;;;;;;16.83;96.41;101949.94;4937003;29;20407;-67
2023/09/05 04:29:24;;;;;;;6.00;5.50;;;;;;;16.83;96.62;101947.19;4965614;28;20541;-70
2023/09/05 04:31:53;;;;;;;7.60;6.00;;;;;;;16.94;96.36;101949.22;4939882;29;20507;-68
2023/09/05 04:34:22;;;;;;;8.23;7.03;;;;;;;16.77;96.43;101945.31;4943851;29;20436;-68
2023/09/05 04:36:51;;;;;;;6.57;5.90;;;;;;;17.01;95.16;101951.06;4936565;29;20455;-67
2023/09/05 04:39:21;;;;;;;7.70;7.03;;;;;;;16.97;94.80;101944.38;4937523;29;20438;-68
2023/09/05 04:41:51;;;;;;;6.97;6.37;;;;;;;16.82;96.02;101948.25;4928378;29;20458;-66
2023/09/05 04:44:20;;;;;;;10.80;6.60;;;;;;;16.83;96.19;101955.38;4933030;29;20802;-67
2023/09/05 04:46:49;;;;;;;6.83;6.00;;;;;;;16.81;96.57;101945.72;4935273;29;20923;-67
2023/09/05 04:49:18;;;;;;;8.00;7.20;;;;;;;16.73;97.04;101955.00;4924462;29;20475;-67
2023/09/05 04:51:47;;;;;;;6.93;6.30;;;;;;;16.70;97.34;101955.44;4942382;28;20536;-69
2023/09/05 04:54:17;;;;;;;7.80;7.00;;;;;;;16.77;96.90;101955.41;4938219;29;20474;-67
2023/09/05 04:56:47;;;;;;;6.63;5.93;;;;;;;17.31;97.62;101952.16;4931088;29;20476;-67
2023/09/05 04:59:16;;;;;;;7.60;6.40;;;;;;;19.09;85.54;101965.72;4923076;29;20451;-68
2023/09/05 05:01:45;;;;;;;7.60;6.33;;;;;;;20.72;77.18;101959.53;4939208;29;20450;-67
2023/09/05 05:04:14;;;;;;;8.63;5.90;;;;;;;21.68;69.69;101964.94;4938171;29;20883;-67
2023/09/05 05:06:44;;;;;;;6.97;6.33;;;;;;;22.53;65.65;101964.56;4934390;29;20448;-68
2023/09/05 05:09:13;;;;;;;7.00;5.87;;;;;;;23.01;62.14;101970.41;4946361;28;20483;-68
2023/09/05 05:11:42;;;;;;;6.83;5.47;;;;;;;22.56;62.86;101977.00;4968375;28;20471;-67
2023/09/05 05:14:12;;;;;;;8.33;6.50;;;;;;;22.24;63.59;101970.50;4935362;29;20431;-69
2023/09/05 05:16:43;;;;;;;9.60;5.60;;;;;;;21.76;65.30;101963.69;4930670;29;20868;-68
2023/09/05 05:19:12;;;;;;;7.90;7.10;;;;;;;20.42;70.83;101956.13;4930136;29;20432;-68
2023/09/05 05:21:41;;;;;;;6.67;5.57;;;;;;;19.57;75.33;101958.47;4930663;29;20439;-67
2023/09/05 05:24:11;;;;;;;6.60;5.90;;;;;;;19.06;78.26;101954.38;4946840;28;20416;-68
2023/09/05 05:26:40;;;;;;;7.90;7.10;;;;;;;18.83;80.18;101957.81;4933475;29;20419;-66
2023/09/05 05:29:11;;;;;;;8.73;7.13;;;;;;;18.61;81.53;101943.78;4933599;29;20449;-67
2023/09/05 05:31:40;;;;;;;8.10;6.33;;;;;;;18.50;82.25;101946.41;4931925;29;20451;-67
2023/09/05 05:34:10;;;;;;;10.17;7.40;;;;;;;18.50;83.05;101947.25;4932676;29;20419;-68
2023/09/05 05:36:39;;;;;;;8.13;7.43;;;;;;;18.52;82.51;101933.31;4952571;28;20420;-66
2023/09/05 05:39:08;;;;;;;13.27;7.70;;;;;;;18.61;82.62;101935.56;4943227;28;20940;-67
2023/09/05 05:41:37;;;;;;;7.70;7.00;;;;;;;18.56;82.68;101934.56;4935190;29;20506;-67
2023/09/05 05:44:07;;;;;;;6.90;6.30;;;;;;;18.57;82.74;101931.59;4945313;29;20445;-66
2023/09/05 05:46:37;;;;;;;7.20;6.47;;;;;;;18.62;82.08;101923.53;4935230;29;20403;-67
2023/09/05 05:49:07;;;;;;;6.47;5.87;;;;;;;18.82;80.91;101925.16;4929673;29;20459;-66
2023/09/05 05:51:37;;;;;;;10.30;8.00;;;;;;;18.81;80.56;101916.09;4936888;29;20447;-67
2023/09/05 05:54:07;;;;;;;8.60;7.43;;;;;;;18.84;80.97;101917.53;4949705;28;20454;-67
2023/09/05 05:56:36;;;;;;;12.67;6.90;;;;;;;18.80;81.24;101924.56;4958496;28;20438;-67
2023/09/05 05:59:06;;;;;;;9.40;7.30;;;;;;;18.78;81.39;101927.56;4941813;29;20412;-68
2023/09/05 06:01:38;;;;;;;8.30;6.93;;;;;;;18.96;80.23;101937.63;4940266;29;20595;-68
2023/09/05 06:04:08;;;;;;;7.17;6.40;;;;;;;19.12;79.26;101934.25;4945119;28;20479;-67
2023/09/05 06:06:38;;;;;;;10.20;6.63;;;;;;;19.22;79.16;101939.97;4932220;28;20993;-67
2023/09/05 06:09:07;;;;;;;7.07;6.20;;;;;;;19.33;78.31;101930.94;4935348;29;20477;-67
2023/09/05 06:11:36;;;;;;;8.90;7.37;;;;;;;19.60;77.44;101934.16;4925544;29;20468;-68
2023/09/05 06:14:05;;;;;;;6.80;6.10;;;;;;;19.74;76.03;101937.50;4939283;29;20943;-68
2023/09/05 06:16:36;;;;;;;9.63;6.47;;;;;;;19.86;75.68;101941.06;4929030;29;20444;-68
2023/09/05 06:19:07;;;;;;;9.50;6.67;;;;;;;20.00;73.96;101941.66;4930160;29;20522;-69
2023/09/05 06:22:28;;;;;;;6.47;5.90;;;;;;;20.27;72.00;101946.44;4935736;29;20885;-67
2023/09/05 06:24:57;;;;;;;6.23;4.90;;;;;;;20.30;71.09;101937.72;4956088;28;20448;-68
2023/09/05 06:27:26;;;;;;;6.97;6.13;;;;;;;20.51;70.36;101943.69;4940064;29;20427;-68
2023/09/05 06:29:55;;;;;;;7.63;5.70;;;;;;;20.59;69.57;101940.53;4952846;28;20895;-67
2023/09/05 06:32:25;;;;;;;5.87;4.97;;;;;;;20.69;68.60;101943.50;4930855;28;20469;-68
2023/09/05 06:34:55;;;;;;;9.33;6.53;;;;;;;20.88;67.90;101938.63;4932703;29;20940;-68
2023/09/05 06:37:28;;;;;;;10.40;7.37;;;;;;;20.90;67.06;101931.84;4938086;29;20432;-66
2023/09/05 06:39:58;;;;;;;7.63;6.63;;;;;;;20.87;66.38;101936.97;4930713;29;20415;-67
2023/09/05 06:42:27;;;;;;;5.10;4.57;;;;;;;20.78;67.04;101933.78;4938591;29;20448;-67
2023/09/05 06:44:57;;;;;;;5.60;4.77;;;;;;;20.76;65.91;101933.19;4937534;29;20832;-67
2023/09/05 06:47:27;;;;;;;5.70;4.40;;;;;;;20.85;66.43;101933.63;4934814;29;20440;-67
2023/09/05 06:49:57;;;;;;;7.13;5.13;;;;;;;20.89;66.46;101940.31;4938974;29;20440;-68
2023/09/05 06:52:26;;;;;;;10.80;6.03;;;;;;;21.05;65.73;101945.88;4937452;29;20453;-67
2023/09/05 06:54:55;;;;;;;9.10;4.87;;;;;;;21.26;64.87;101947.09;4932913;29;20422;-67
2023/09/05 06:57:25;;;;;;;6.90;6.13;;;;;;;21.23;64.50;101947.63;4944726;29;20436;-67
2023/09/05 06:59:54;;;;;;;8.90;5.63;;;;;;;21.27;65.03;101947.94;4940686;28;20415;-67
2023/09/05 07:02:23;;;;;;;6.83;4.93;;;;;;;21.46;64.60;101947.47;4927550;29;20910;-68
2023/09/05 07:04:54;;;;;;;7.20;5.30;;;;;;;21.68;63.32;101950.34;4938671;29;20411;-68
2023/09/05 07:07:23;;;;;;;6.40;5.80;;;;;;;21.76;62.51;101949.06;4943640;29;20462;-68
2023/09/05 07:09:53;;;;;;;10.20;5.20;;;;;;;21.89;61.54;101954.22;4937911;29;20472;-67
2023/09/05 07:12:22;;;;;;;6.43;5.43;;;;;;;21.99;61.80;101958.00;4942839;29;20848;-68
2023/09/05 07:14:52;;;;;;;5.93;4.80;;;;;;;22.00;61.23;101956.94;4938955;29;20442;-68
2023/09/05 07:17:21;;;;;;;7.90;6.97;;;;;;;22.13;61.40;101960.41;4932426;29;20427;-69
2023/09/05 07:19:50;;;;;;;6.97;6.00;;;;;;;22.19;60.27;101954.72;4944275;28;20445;-66
2023/09/05 07:22:22;;;;;;;6.40;4.83;;;;;;;22.15;60.20;101955.50;4951514;28;20468;-66
2023/09/05 07:24:51;;;;;;;6.80;4.50;;;;;;;22.38;59.94;101958.00;4934762;29;20454;-68
2023/09/05 07:27:20;;;;;;;5.10;4.63;;;;;;;22.17;58.98;101961.59;4939864;29;20609;-67
2023/09/05 07:29:49;;;;;;;6.63;5.10;;;;;;;22.17;60.11;101958.84;4927444;29;20456;-67
2023/09/05 07:32:18;;;;;;;6.30;5.10;;;;;;;22.32;59.80;101957.09;4939994;29;20471;-68
2023/09/05 07:34:48;;;;;;;8.97;5.40;;;;;;;22.28;59.83;101961.47;4948101;28;20545;-66
2023/09/05 07:37:18;;;;;;;8.43;4.87;;;;;;;22.30;59.76;101969.50;4955678;28;20815;-69
2023/09/05 07:39:50;;;;;;;5.97;3.80;;;;;;;22.23;60.30;101968.81;4929029;29;20522;-66
2023/09/05 07:42:28;;;;;;;6.40;4.63;;;;;;;22.38;59.49;101969.88;4935580;29;20811;-67
2023/09/05 07:44:58;;;;;;;7.90;5.00;;;;;;;22.40;58.66;101975.16;4933549;29;20791;-68
2023/09/05 07:47:27;;;;;;;6.20;4.77;;;;;;;22.38;57.85;101971.81;4953471;28;20693;-68
2023/09/05 07:49:56;;;;;;;4.90;3.90;;;;;;;22.35;58.60;101972.31;4933882;29;20977;-68
2023/09/05 07:52:25;;;;;;;5.70;4.50;;;;;;;22.47;58.08;101970.28;4934884;29;20503;-67
2023/09/05 07:54:56;;;;;;;5.50;4.93;;;;;;;22.65;57.00;101972.75;4934027;29;20502;-67
2023/09/05 07:57:25;;;;;;;5.77;4.20;;;;;;;22.62;56.56;101970.47;4950096;28;20541;-67
2023/09/05 07:59:54;;;;;;;10.20;4.63;;;;;;;22.66;56.83;101968.03;4940083;29;20489;-66
2023/09/05 08:02:23;;;;;;;6.40;4.73;;;;;;;22.77;56.88;101970.69;4935217;29;20470;-67
2023/09/05 08:04:52;;;;;;;6.30;4.07;;;;;;;22.89;57.43;101968.66;4947909;28;20574;-68
2023/09/05 08:07:22;;;;;;;5.03;4.23;;;;;;;23.13;56.06;101971.13;4941329;29;20457;-67
2023/09/05 08:09:51;;;;;;;5.23;4.53;;;;;;;23.26;55.36;101963.25;4941494;29;20990;-67
2023/09/05 08:12:21;;;;;;;4.80;3.30;;;;;;;23.22;55.25;101967.63;4933586;29;20840;-66
2023/09/05 08:14:50;;;;;;;5.03;3.80;;;;;;;23.32;55.13;101962.22;4947330;28;20465;-67
2023/09/05 08:17:20;;;;;;;6.50;4.07;;;;;;;23.43;55.07;101963.13;4939317;29;20455;-67
2023/09/05 08:19:50;;;;;;;7.30;4.13;;;;;;;23.48;54.96;101960.44;4932318;29;20803;-67
2023/09/05 08:22:19;;;;;;;6.00;4.50;;;;;;;23.47;54.47;101958.78;4955260;28;20487;-68
2023/09/05 08:24:49;;;;;;;7.90;4.00;;;;;;;23.63;54.22;101965.25;4936148;29;20451;-68
2023/09/05 08:27:28;;;;;;;5.87;4.10;;;;;;;23.75;54.50;101960.41;4934742;29;20472;-68
2023/09/05 08:29:58;;;;;;;6.33;4.30;;;;;;;23.94;53.22;101958.06;4939603;29;20553;-67
2023/09/05 08:32:28;;;;;;;6.90;4.03;;;;;;;23.90;54.45;101952.22;4936840;29;20465;-67
2023/09/05 08:34:59;;;;;;;5.97;4.17;;;;;;;24.04;52.74;101963.66;4930994;29;20544;-66
2023/09/05 08:37:28;;;;;;;5.90;3.57;;;;;;;24.22;53.23;101964.09;4937760;29;20891;-67
2023/09/05 08:39:57;;;;;;;4.93;4.43;;;;;;;24.45;52.29;101962.81;4937577;29;20499;-67
2023/09/05 08:42:30;;;;;;;4.20;3.80;;;;;;;24.51;51.35;101961.75;4954668;28;20482;-66
2023/09/05 08:45:02;;;;;;;5.77;3.60;;;;;;;24.51;51.47;101947.91;4936617;29;20442;-67
2023/09/05 08:47:32;;;;;;;4.50;4.00;;;;;;;24.66;51.42;101947.97;4957393;28;20458;-68
2023/09/05 08:50:04;;;;;;;5.27;3.40;;;;;;;24.56;50.88;101949.88;4936561;29;20531;-66
2023/09/05 08:52:36;;;;;;;5.43;3.70;;;;;;;24.61;50.15;101953.50;4937941;29;20489;-66
2023/09/05 08:55:09;;;;;;;6.23;3.67;;;;;;;24.81;50.03;101941.66;4935130;29;20885;-67
2023/09/05 08:57:42;;;;;;;5.80;4.00;;;;;;;24.96;50.13;101954.75;4943164;29;20424;-67
2023/09/05 09:00:13;;;;;;;3.43;3.07;;;;;;;25.18;49.27;101949.81;4937905;29;20433;-67
2023/09/05 09:02:42;;;;;;;5.33;3.83;;;;;;;25.32;48.40;101953.72;4936299;29;20923;-66
2023/09/05 09:05:11;;;;;;;7.07;3.70;;;;;;;25.20;48.03;101950.38;4940177;28;20450;-67
2023/09/05 09:07:41;;;;;;;5.77;3.60;;;;;;;25.14;48.65;101956.16;4931782;29;20802;-66
2023/09/05 09:10:21;;;;;;;4.00;3.47;;;;;;;25.35;47.48;101947.63;4936587;29;20496;-67
2023/09/05 09:12:54;;;;;;;5.43;3.30;;;;;;;25.48;47.46;101940.72;4938497;29;20857;-67
2023/09/05 09:15:26;;;;;;;4.77;2.93;;;;;;;25.61;47.42;101933.81;4937363;29;20457;-67
2023/09/05 09:17:57;;;;;;;4.10;3.40;;;;;;;25.56;47.25;101936.59;4939402;29;20539;-67
2023/09/05 09:20:27;;;;;;;4.63;3.37;;;;;;;25.78;47.16;101934.34;4929364;29;20448;-67
2023/09/05 09:22:56;;;;;;;8.73;3.53;;;;;;;25.90;46.51;101937.69;4938247;29;20471;-67
2023/09/05 09:25:26;;;;;;;7.50;4.00;;;;;;;25.89;45.76;101936.84;4934223;29;20484;-67
2023/09/05 09:27:58;;;;;;;4.40;2.83;;;;;;;25.94;46.32;101933.25;4934582;29;20455;-67
2023/09/05 09:30:30;;;;;;;3.43;3.00;;;;;;;26.09;45.65;101924.06;4935451;29;20483;-66
2023/09/05 09:33:00;;;;;;;5.70;2.90;;;;;;;26.10;45.32;101920.97;4930962;29;20466;-67
2023/09/05 09:35:32;;;;;;;4.07;3.30;;;;;;;26.06;45.77;101928.19;4933795;29;20437;-67
2023/09/05 09:38:01;;;;;;;4.73;2.80;;;;;;;26.02;45.44;101916.00;4934972;29;20484;-67
2023/09/05 09:40:37;;;;;;;3.53;3.00;;;;;;;25.95;46.04;101918.22;4936872;29;20496;-68
2023/09/05 09:43:09;;;;;;;5.10;3.33;;;;;;;26.13;45.69;101914.88;4933735;29;20515;-68
2023/09/05 09:45:39;;;;;;;5.53;3.23;;;;;;;26.10;45.44;101914.59;4953426;28;20456;-66
2023/09/05 09:48:11;;;;;;;4.00;2.53;;;;;;;26.21;45.07;101913.47;4937853;29;20508;-67
2023/09/05 09:50:41;;;;;;;5.60;3.10;;;;;;;26.33;44.78;101897.38;4931256;29;20471;-65
2023/09/05 09:53:12;;;;;;;3.10;2.73;;;;;;;26.33;44.49;101900.97;4929032;29;20472;-67
2023/09/05 09:55:45;;;;;;;4.77;2.50;;;;;;;26.29;44.40;101899.88;4928426;29;20461;-67
2023/09/05 09:58:18;;;;;;;4.40;2.60;;;;;;;26.31;44.38;101894.88;4930379;29;20991;-67
2023/09/05 10:00:49;;;;;;;6.13;3.40;;;;;;;26.47;44.40;101889.25;4934717;29;20421;-67
2023/09/05 10:03:20;;;;;;;3.23;2.93;;;;;;;26.49;43.98;101898.13;4931359;29;20477;-66
2023/09/05 10:05:50;;;;;;;3.00;2.43;;;;;;;26.50;45.39;101897.00;4933508;29;20485;-67
2023/09/05 10:08:21;;;;;;;4.70;4.20;;;;;;;26.72;44.78;101900.25;4934953;29;20451;-67
2023/09/05 10:10:52;;;;;;;3.57;2.80;;;;;;;26.70;44.50;101889.41;4926065;29;20441;-66
2023/09/05 10:13:27;;;;;;;4.20;3.20;;;;;;;26.77;44.83;101891.88;4934185;28;20489;-66
2023/09/05 10:16:01;;;;;;;4.83;2.50;;;;;;;26.89;44.32;101892.38;4934409;29;20455;-67
2023/09/05 10:18:32;;;;;;;4.27;2.97;;;;;;;26.97;44.74;101889.00;4937155;29;20456;-67
2023/09/05 10:21:02;;;;;;;2.87;2.60;;;;;;;27.00;44.75;101885.66;4925601;29;20526;-69
2023/09/05 10:23:34;;;;;;;3.97;2.93;;;;;;;27.07;44.27;101882.53;4928707;29;20516;-68
2023/09/05 10:26:04;;;;;;;3.23;2.93;;;;;;;27.16;44.30;101878.84;4931177;29;20442;-67
2023/09/05 10:28:34;;;;;;;4.93;3.90;;;;;;;27.11;44.34;101872.53;4931717;29;20452;-67
2023/09/05 10:31:12;;;;;;;4.50;2.80;;;;;;;27.15;44.29;101866.09;4952872;28;20517;-68
2023/09/05 10:33:45;;;;;;;5.53;3.67;;;;;;;27.27;44.04;101870.44;4928712;29;20535;-68
2023/09/05 10:36:40;;;;;;;4.20;3.23;;;;;;;27.31;44.26;101874.28;4932066;29;20511;-68
2023/09/05 10:39:32;;;;;;;5.67;3.37;;;;;;;27.32;44.10;101867.63;4934982;29;20460;-67
2023/09/05 10:42:01;;;;;;;5.90;4.57;;;;;;;27.42;43.79;101859.19;4929560;29;20460;-67
2023/09/05 10:44:33;;;;;;;4.20;2.83;;;;;;;27.11;44.07;101859.44;4931063;29;20450;-68
2023/09/05 10:47:26;;;;;;;5.97;4.23;;;;;;;27.13;44.54;101861.94;4932863;29;20523;-67
2023/09/05 10:49:59;;;;;;;6.07;3.97;;;;;;;26.90;44.82;101860.72;4930650;29;20556;-68
2023/09/05 10:52:29;;;;;;;6.30;2.70;;;;;;;27.08;44.37;101857.25;4932817;28;20516;-68
2023/09/05 10:54:59;;;;;;;4.30;2.60;;;;;;;27.05;44.57;101855.06;4927696;29;20424;-68
2023/09/05 10:57:40;;;;;;;6.20;4.50;;;;;;;27.32;44.50;101859.28;4925897;28;20551;-67
2023/09/05 11:00:38;;;;;;;7.50;4.57;;;;;;;27.61;43.63;101849.03;4929261;29;20950;-67
2023/09/05 11:03:12;;;;;;;3.70;2.87;;;;;;;27.39;43.93;101855.06;4931858;29;20460;-67
2023/09/05 11:05:45;;;;;;;4.50;4.07;;;;;;;27.53;43.57;101846.91;4931386;29;20835;-68
2023/09/05 11:08:23;;;;;;;4.60;4.00;;;;;;;27.52;43.65;101845.22;4942081;28;20479;-68
2023/09/05 11:10:55;;;;;;;3.27;2.70;;;;;;;27.64;43.22;101851.25;4942093;28;20536;-68
2023/09/05 11:13:26;;;;;;;8.83;2.30;;;;;;;27.59;43.38;101852.09;4947084;28;20473;-67
2023/09/05 11:16:03;;;;;;;2.93;2.67;;;;;;;27.57;43.31;101850.75;4932300;29;20495;-68
2023/09/05 11:18:33;;;;;;;2.93;2.73;;;;;;;27.74;43.13;101844.75;4931559;29;20815;-68
2023/09/05 11:21:06;;;;;;;5.07;2.10;;;;;;;27.48;43.10;101842.19;4932883;29;20496;-68
2023/09/05 11:23:37;;;;;;;4.50;3.03;;;;;;;27.42;43.29;101832.22;4935433;29;20875;-67
2023/09/05 11:26:10;;;;;;;4.27;2.63;;;;;;;27.46;43.06;101838.84;4932724;28;20460;-67
2023/09/05 11:28:41;;;;;;;6.60;5.90;;;;;;;27.59;42.86;101832.63;4942197;29;20467;-67
2023/09/05 11:31:15;;;;;;;8.87;6.10;;;;;;;27.65;43.30;101838.97;4937768;29;20444;-68
2023/09/05 11:33:48;;;;;;;3.20;2.63;;;;;;;27.74;42.78;101839.97;4935780;29;20464;-68
2023/09/05 11:36:19;;;;;;;4.53;2.80;;;;;;;27.75;42.65;101824.97;4932641;29;20464;-68
2023/09/05 11:38:53;;;;;;;4.60;2.47;;;;;;;27.88;42.96;101813.16;4941358;29;20960;-67
2023/09/05 11:41:24;;;;;;;4.40;2.40;;;;;;;28.09;43.03;101825.66;4935019;29;20550;-68